sensor_id;sensor_type;location;lat;lon;timestamp;pressure;altitude;pressure_sealevel;temperature;humidity
15678;BME280;7939;50.814;6.368;2023-06-10T00:01:23;99694.63;;;24.60;45.99
15678;BME280;7939;50.814;6.368;2023-06-10T00:03:51;99697.34;;;24.59;46.15
15678;BME280;7939;50.814;6.368;2023-06-10T00:06:18;99694.78;;;24.57;46.32
15678;BME280;7939;50.814;6.368;2023-06-10T00:08:44;99696.66;;;24.55;46.17
15678;BME280;7939;50.814;6.368;2023-06-10T00:11:12;99698.53;;;24.53;46.31
15678;BME280;7939;50.814;6.368;2023-06-10T00:13:39;99696.88;;;24.52;46.09
15678;BME280;7939;50.814;6.368;2023-06-10T00:16:06;99693.47;;;24.50;46.23
15678;BME280;7939;50.814;6.368;2023-06-10T00:18:33;99698.91;;;24.47;46.28
15678;BME280;7939;50.814;6.368;2023-06-10T00:21:03;99696.38;;;24.45;46.03
15678;BME280;7939;50.814;6.368;2023-06-10T00:23:31;99700.00;;;24.43;46.18
15678;BME280;7939;50.814;6.368;2023-06-10T00:26:03;99700.94;;;24.42;46.35
15678;BME280;7939;50.814;6.368;2023-06-10T00:28:30;99698.41;;;24.40;46.48
15678;BME280;7939;50.814;6.368;2023-06-10T00:30:56;99704.66;;;24.38;46.10
15678;BME280;7939;50.814;6.368;2023-06-10T00:33:23;99704.75;;;24.36;46.17
15678;BME280;7939;50.814;6.368;2023-06-10T00:35:50;99708.28;;;24.35;46.28
15678;BME280;7939;50.814;6.368;2023-06-10T00:38:18;99703.16;;;24.34;46.04
15678;BME280;7939;50.814;6.368;2023-06-10T00:40:45;99708.41;;;24.32;46.49
15678;BME280;7939;50.814;6.368;2023-06-10T00:43:11;99705.06;;;24.30;46.38
15678;BME280;7939;50.814;6.368;2023-06-10T00:45:38;99707.78;;;24.29;46.34
15678;BME280;7939;50.814;6.368;2023-06-10T00:48:05;99705.25;;;24.27;46.23
15678;BME280;7939;50.814;6.368;2023-06-10T00:50:31;99713.25;;;24.24;46.37
15678;BME280;7939;50.814;6.368;2023-06-10T00:53:00;99714.19;;;24.23;46.41
15678;BME280;7939;50.814;6.368;2023-06-10T00:55:29;99709.06;;;24.21;46.19
15678;BME280;7939;50.814;6.368;2023-06-10T00:57:56;99716.13;;;24.19;46.49
15678;BME280;7939;50.814;6.368;2023-06-10T01:00:23;99715.28;;;24.19;46.22
15678;BME280;7939;50.814;6.368;2023-06-10T01:02:50;99711.09;;;24.16;46.30
15678;BME280;7939;50.814;6.368;2023-06-10T01:05:18;99704.28;;;24.14;46.10
15678;BME280;7939;50.814;6.368;2023-06-10T01:07:51;99701.75;;;24.12;46.20
15678;BME280;7939;50.814;6.368;2023-06-10T01:10:25;99705.28;;;24.11;46.14
15678;BME280;7939;50.814;6.368;2023-06-10T01:12:59;99706.22;;;24.10;46.01
15678;BME280;7939;50.814;6.368;2023-06-10T01:15:28;99698.53;;;24.07;46.39
15678;BME280;7939;50.814;6.368;2023-06-10T01:17:56;99698.63;;;24.06;46.07
15678;BME280;7939;50.814;6.368;2023-06-10T01:20:25;99695.28;;;24.04;46.26
15678;BME280;7939;50.814;6.368;2023-06-10T01:22:54;99704.88;;;24.03;46.16
15678;BME280;7939;50.814;6.368;2023-06-10T01:25:22;99697.16;;;24.02;46.00
15678;BME280;7939;50.814;6.368;2023-06-10T01:27:55;99697.16;;;24.02;46.25
15678;BME280;7939;50.814;6.368;2023-06-10T01:30:27;99697.31;;;23.99;46.55
15678;BME280;7939;50.814;6.368;2023-06-10T01:32:59;99705.13;;;23.99;46.28
15678;BME280;7939;50.814;6.368;2023-06-10T01:35:29;99700.09;;;23.95;46.04
15678;BME280;7939;50.814;6.368;2023-06-10T01:37:59;99703.63;;;23.94;46.23
15678;BME280;7939;50.814;6.368;2023-06-10T01:40:28;99703.72;;;23.93;46.41
15678;BME280;7939;50.814;6.368;2023-06-10T01:42:55;99709.03;;;23.91;46.27
15678;BME280;7939;50.814;6.368;2023-06-10T01:45:22;99709.13;;;23.90;46.18
15678;BME280;7939;50.814;6.368;2023-06-10T01:47:49;99707.44;;;23.89;46.13
15678;BME280;7939;50.814;6.368;2023-06-10T01:50:16;99708.44;;;23.86;46.25
15678;BME280;7939;50.814;6.368;2023-06-10T01:52:43;99703.31;;;23.85;46.52
15678;BME280;7939;50.814;6.368;2023-06-10T01:55:11;99704.25;;;23.84;46.32
15678;BME280;7939;50.814;6.368;2023-06-10T01:57:37;99706.94;;;23.82;46.46
15678;BME280;7939;50.814;6.368;2023-06-10T02:00:05;99713.91;;;23.82;46.27
15678;BME280;7939;50.814;6.368;2023-06-10T02:02:33;99712.31;;;23.79;46.36
15678;BME280;7939;50.814;6.368;2023-06-10T02:04:59;99713.25;;;23.78;46.42
15678;BME280;7939;50.814;6.368;2023-06-10T02:07:26;99710.72;;;23.77;46.46
15678;BME280;7939;50.814;6.368;2023-06-10T02:09:52;99708.19;;;23.75;46.54
15678;BME280;7939;50.814;6.368;2023-06-10T02:12:20;99717.03;;;23.73;46.40
15678;BME280;7939;50.814;6.368;2023-06-10T02:14:47;99712.75;;;23.72;46.71
15678;BME280;7939;50.814;6.368;2023-06-10T02:17:13;99712.84;;;23.70;46.49
15678;BME280;7939;50.814;6.368;2023-06-10T02:19:40;99716.34;;;23.69;46.70
15678;BME280;7939;50.814;6.368;2023-06-10T02:22:08;99716.44;;;23.67;46.70
15678;BME280;7939;50.814;6.368;2023-06-10T02:24:35;99716.63;;;23.64;46.85
15678;BME280;7939;50.814;6.368;2023-06-10T02:27:03;99715.84;;;23.62;46.75
15678;BME280;7939;50.814;6.368;2023-06-10T02:29:33;99711.63;;;23.60;46.84
15678;BME280;7939;50.814;6.368;2023-06-10T02:32:02;99717.75;;;23.59;46.90
15678;BME280;7939;50.814;6.368;2023-06-10T02:34:29;99711.78;;;23.57;46.70
15678;BME280;7939;50.814;6.368;2023-06-10T02:36:56;99718.84;;;23.55;46.94
15678;BME280;7939;50.814;6.368;2023-06-10T02:39:23;99713.72;;;23.53;46.96
15678;BME280;7939;50.814;6.368;2023-06-10T02:41:49;99718.19;;;23.51;46.66
15678;BME280;7939;50.814;6.368;2023-06-10T02:44:17;99718.25;;;23.50;46.99
15678;BME280;7939;50.814;6.368;2023-06-10T02:46:45;99713.97;;;23.49;47.11
15678;BME280;7939;50.814;6.368;2023-06-10T02:49:12;99712.38;;;23.46;47.26
15678;BME280;7939;50.814;6.368;2023-06-10T02:51:39;99712.47;;;23.45;47.10
15678;BME280;7939;50.814;6.368;2023-06-10T02:54:06;99716.91;;;23.42;47.29
15678;BME280;7939;50.814;6.368;2023-06-10T02:56:32;99715.31;;;23.40;47.12
15678;BME280;7939;50.814;6.368;2023-06-10T02:58:59;99712.78;;;23.38;47.13
15678;BME280;7939;50.814;6.368;2023-06-10T03:01:26;99719.75;;;23.38;47.16
15678;BME280;7939;50.814;6.368;2023-06-10T03:03:54;99719.00;;;23.36;47.53
15678;BME280;7939;50.814;6.368;2023-06-10T03:06:21;99724.31;;;23.34;47.23
15678;BME280;7939;50.814;6.368;2023-06-10T03:08:49;99722.63;;;23.33;47.21
15678;BME280;7939;50.814;6.368;2023-06-10T03:11:16;99724.44;;;23.31;47.50
15678;BME280;7939;50.814;6.368;2023-06-10T03:13:44;99731.53;;;23.29;47.36
15678;BME280;7939;50.814;6.368;2023-06-10T03:16:11;99722.94;;;23.27;47.52
15678;BME280;7939;50.814;6.368;2023-06-10T03:18:38;99724.72;;;23.27;47.13
15678;BME280;7939;50.814;6.368;2023-06-10T03:21:07;99728.31;;;23.24;47.44
15678;BME280;7939;50.814;6.368;2023-06-10T03:23:35;99730.91;;;23.24;47.52
15678;BME280;7939;50.814;6.368;2023-06-10T03:26:02;99734.38;;;23.25;47.14
15678;BME280;7939;50.814;6.368;2023-06-10T03:28:30;99732.69;;;23.24;47.53
15678;BME280;7939;50.814;6.368;2023-06-10T03:30:56;99729.34;;;23.22;47.59
15678;BME280;7939;50.814;6.368;2023-06-10T03:33:23;99725.88;;;23.21;47.42
15678;BME280;7939;50.814;6.368;2023-06-10T03:35:50;99728.50;;;23.21;47.66
15678;BME280;7939;50.814;6.368;2023-06-10T03:38:18;99733.78;;;23.20;47.50
15678;BME280;7939;50.814;6.368;2023-06-10T03:40:44;99733.00;;;23.18;47.83
15678;BME280;7939;50.814;6.368;2023-06-10T03:43:11;99740.91;;;23.16;47.65
15678;BME280;7939;50.814;6.368;2023-06-10T03:45:37;99744.47;;;23.15;47.71
15678;BME280;7939;50.814;6.368;2023-06-10T03:48:05;99742.78;;;23.14;47.64
15678;BME280;7939;50.814;6.368;2023-06-10T03:50:33;99747.22;;;23.12;47.92
15678;BME280;7939;50.814;6.368;2023-06-10T03:53:00;99742.09;;;23.10;47.92
15678;BME280;7939;50.814;6.368;2023-06-10T03:55:28;99743.84;;;23.10;48.02
15678;BME280;7939;50.814;6.368;2023-06-10T03:57:54;99740.50;;;23.08;47.63
15678;BME280;7939;50.814;6.368;2023-06-10T04:00:21;99744.88;;;23.07;47.87
15678;BME280;7939;50.814;6.368;2023-06-10T04:02:48;99745.75;;;23.06;47.57
15678;BME280;7939;50.814;6.368;2023-06-10T04:05:18;99744.09;;;23.05;48.04
15678;BME280;7939;50.814;6.368;2023-06-10T04:07:47;99743.25;;;23.05;47.77
15678;BME280;7939;50.814;6.368;2023-06-10T04:10:14;99748.53;;;23.03;47.97
15678;BME280;7939;50.814;6.368;2023-06-10T04:12:42;99750.31;;;23.03;48.35
15678;BME280;7939;50.814;6.368;2023-06-10T04:15:09;99753.00;;;23.01;48.37
15678;BME280;7939;50.814;6.368;2023-06-10T04:17:36;99756.50;;;23.00;48.13
15678;BME280;7939;50.814;6.368;2023-06-10T04:20:03;99757.38;;;23.01;48.32
15678;BME280;7939;50.814;6.368;2023-06-10T04:22:32;99756.59;;;22.99;48.21
15678;BME280;7939;50.814;6.368;2023-06-10T04:24:59;99759.19;;;22.99;48.38
15678;BME280;7939;50.814;6.368;2023-06-10T04:27:26;99756.69;;;22.97;48.38
15678;BME280;7939;50.814;6.368;2023-06-10T04:29:54;99758.34;;;22.98;48.30
15678;BME280;7939;50.814;6.368;2023-06-10T04:32:20;99760.97;;;22.98;48.27
15678;BME280;7939;50.814;6.368;2023-06-10T04:34:47;99755.66;;;23.00;48.16
15678;BME280;7939;50.814;6.368;2023-06-10T04:37:13;99753.91;;;23.00;48.16
15678;BME280;7939;50.814;6.368;2023-06-10T04:39:40;99757.38;;;23.01;48.23
15678;BME280;7939;50.814;6.368;2023-06-10T04:42:07;99757.38;;;23.01;47.93
15678;BME280;7939;50.814;6.368;2023-06-10T04:44:33;99760.72;;;23.03;48.34
15678;BME280;7939;50.814;6.368;2023-06-10T04:47:01;99752.00;;;23.04;48.36
15678;BME280;7939;50.814;6.368;2023-06-10T04:49:28;99747.69;;;23.03;48.16
15678;BME280;7939;50.814;6.368;2023-06-10T04:51:55;99754.59;;;23.04;48.36
15678;BME280;7939;50.814;6.368;2023-06-10T04:54:21;99754.50;;;23.05;48.09
15678;BME280;7939;50.814;6.368;2023-06-10T04:56:48;99760.50;;;23.07;48.39
15678;BME280;7939;50.814;6.368;2023-06-10T04:59:14;99762.19;;;23.08;48.40
15678;BME280;7939;50.814;6.368;2023-06-10T05:01:41;99763.03;;;23.09;48.25
15678;BME280;7939;50.814;6.368;2023-06-10T05:04:09;99759.56;;;23.08;48.49
15678;BME280;7939;50.814;6.368;2023-06-10T05:06:36;99762.00;;;23.11;48.19
15678;BME280;7939;50.814;6.368;2023-06-10T05:09:02;99757.63;;;23.12;48.33
15678;BME280;7939;50.814;6.368;2023-06-10T05:11:29;99759.31;;;23.13;48.49
15678;BME280;7939;50.814;6.368;2023-06-10T05:13:55;99757.72;;;23.10;48.22
15678;BME280;7939;50.814;6.368;2023-06-10T05:16:22;99761.09;;;23.12;48.30
15678;BME280;7939;50.814;6.368;2023-06-10T05:18:49;99756.78;;;23.11;48.30
15678;BME280;7939;50.814;6.368;2023-06-10T05:21:18;99755.03;;;23.12;48.36
15678;BME280;7939;50.814;6.368;2023-06-10T05:23:45;99762.00;;;23.11;48.44
15678;BME280;7939;50.814;6.368;2023-06-10T05:26:12;99755.13;;;23.10;48.25
15678;BME280;7939;50.814;6.368;2023-06-10T05:28:39;99755.13;;;23.10;48.20
15678;BME280;7939;50.814;6.368;2023-06-10T05:31:05;99755.97;;;23.11;48.37
15678;BME280;7939;50.814;6.368;2023-06-10T05:33:32;99755.97;;;23.11;48.32
15678;BME280;7939;50.814;6.368;2023-06-10T05:35:59;99760.25;;;23.12;48.09
15678;BME280;7939;50.814;6.368;2023-06-10T05:38:27;99764.72;;;23.10;48.47
15678;BME280;7939;50.814;6.368;2023-06-10T05:40:54;99761.16;;;23.11;48.39
15678;BME280;7939;50.814;6.368;2023-06-10T05:43:22;99763.69;;;23.12;48.47
15678;BME280;7939;50.814;6.368;2023-06-10T05:45:48;99766.38;;;23.11;48.27
15678;BME280;7939;50.814;6.368;2023-06-10T05:48:15;99763.88;;;23.09;48.45
15678;BME280;7939;50.814;6.368;2023-06-10T05:50:42;99770.84;;;23.09;48.69
15678;BME280;7939;50.814;6.368;2023-06-10T05:53:13;99771.59;;;23.11;48.84
15678;BME280;7939;50.814;6.368;2023-06-10T05:55:42;99779.41;;;23.11;48.86
15678;BME280;7939;50.814;6.368;2023-06-10T05:58:08;99775.88;;;23.12;48.70
15678;BME280;7939;50.814;6.368;2023-06-10T06:00:35;99774.22;;;23.11;48.71
15678;BME280;7939;50.814;6.368;2023-06-10T06:03:02;99779.34;;;23.12;48.60
15678;BME280;7939;50.814;6.368;2023-06-10T06:05:29;99777.56;;;23.13;48.43
15678;BME280;7939;50.814;6.368;2023-06-10T06:08:00;99770.63;;;23.13;48.72
15678;BME280;7939;50.814;6.368;2023-06-10T06:10:27;99775.88;;;23.12;48.72
15678;BME280;7939;50.814;6.368;2023-06-10T06:12:55;99777.81;;;23.08;48.76
15678;BME280;7939;50.814;6.368;2023-06-10T06:15:22;99780.34;;;23.10;48.97
15678;BME280;7939;50.814;6.368;2023-06-10T06:17:49;99776.06;;;23.09;49.10
15678;BME280;7939;50.814;6.368;2023-06-10T06:20:17;99781.19;;;23.10;49.17
15678;BME280;7939;50.814;6.368;2023-06-10T06:22:44;99777.56;;;23.13;49.21
15678;BME280;7939;50.814;6.368;2023-06-10T06:25:11;99782.72;;;23.14;49.48
15678;BME280;7939;50.814;6.368;2023-06-10T06:27:37;99774.91;;;23.14;49.43
15678;BME280;7939;50.814;6.368;2023-06-10T06:30:07;99781.81;;;23.15;49.07
15678;BME280;7939;50.814;6.368;2023-06-10T06:32:34;99792.13;;;23.17;49.76
15678;BME280;7939;50.814;6.368;2023-06-10T06:35:00;99789.38;;;23.20;49.42
15678;BME280;7939;50.814;6.368;2023-06-10T06:37:27;99790.16;;;23.22;49.29
15678;BME280;7939;50.814;6.368;2023-06-10T06:39:53;99795.34;;;23.22;49.26
15678;BME280;7939;50.814;6.368;2023-06-10T06:42:21;99793.59;;;23.23;49.35
15678;BME280;7939;50.814;6.368;2023-06-10T06:44:47;99793.44;;;23.26;49.12
15678;BME280;7939;50.814;6.368;2023-06-10T06:47:15;99799.41;;;23.28;49.35
15678;BME280;7939;50.814;6.368;2023-06-10T06:49:45;99800.25;;;23.28;49.06
15678;BME280;7939;50.814;6.368;2023-06-10T06:52:11;99803.69;;;23.29;48.89
15678;BME280;7939;50.814;6.368;2023-06-10T06:54:38;99801.00;;;23.30;49.19
15678;BME280;7939;50.814;6.368;2023-06-10T06:57:05;99801.84;;;23.31;49.23
15678;BME280;7939;50.814;6.368;2023-06-10T06:59:32;99803.63;;;23.30;49.15
15678;BME280;7939;50.814;6.368;2023-06-10T07:01:59;99806.09;;;23.33;48.86
15678;BME280;7939;50.814;6.368;2023-06-10T07:04:27;99808.69;;;23.33;48.99
15678;BME280;7939;50.814;6.368;2023-06-10T07:06:54;99806.84;;;23.35;49.25
15678;BME280;7939;50.814;6.368;2023-06-10T07:09:20;99807.59;;;23.37;49.21
15678;BME280;7939;50.814;6.368;2023-06-10T07:11:47;99804.84;;;23.40;49.29
15678;BME280;7939;50.814;6.368;2023-06-10T07:14:14;99803.91;;;23.41;48.98
15678;BME280;7939;50.814;6.368;2023-06-10T07:16:40;99796.00;;;23.43;49.22
15678;BME280;7939;50.814;6.368;2023-06-10T07:19:07;99807.13;;;23.47;48.84
15678;BME280;7939;50.814;6.368;2023-06-10T07:21:35;99800.88;;;23.49;49.10
15678;BME280;7939;50.814;6.368;2023-06-10T07:24:02;99802.56;;;23.50;48.77
15678;BME280;7939;50.814;6.368;2023-06-10T07:26:28;99803.94;;;23.57;48.69
15678;BME280;7939;50.814;6.368;2023-06-10T07:28:55;99804.56;;;23.62;48.38
15678;BME280;7939;50.814;6.368;2023-06-10T07:31:23;99801.81;;;23.65;48.34
15678;BME280;7939;50.814;6.368;2023-06-10T07:33:49;99798.84;;;23.72;48.35
15678;BME280;7939;50.814;6.368;2023-06-10T07:36:16;99794.25;;;23.77;48.16
15678;BME280;7939;50.814;6.368;2023-06-10T07:38:44;99799.19;;;23.81;47.77
15678;BME280;7939;50.814;6.368;2023-06-10T07:41:11;99796.34;;;23.86;48.02
15678;BME280;7939;50.814;6.368;2023-06-10T07:43:38;99798.63;;;23.92;47.82
15678;BME280;7939;50.814;6.368;2023-06-10T07:46:04;99795.66;;;23.98;47.69
15678;BME280;7939;50.814;6.368;2023-06-10T07:48:31;99801.56;;;24.02;47.53
15678;BME280;7939;50.814;6.368;2023-06-10T07:50:58;99797.94;;;24.04;47.24
15678;BME280;7939;50.814;6.368;2023-06-10T07:53:25;99799.47;;;24.08;46.96
15678;BME280;7939;50.814;6.368;2023-06-10T07:55:53;99799.13;;;24.14;46.94
15678;BME280;7939;50.814;6.368;2023-06-10T07:58:19;99803.06;;;24.21;47.10
15678;BME280;7939;50.814;6.368;2023-06-10T08:00:47;99794.13;;;24.26;46.77
15678;BME280;7939;50.814;6.368;2023-06-10T08:03:13;99798.16;;;24.31;46.74
15678;BME280;7939;50.814;6.368;2023-06-10T08:05:40;99805.69;;;24.37;46.76
15678;BME280;7939;50.814;6.368;2023-06-10T08:08:07;99806.47;;;24.39;46.33
15678;BME280;7939;50.814;6.368;2023-06-10T08:10:34;99799.94;;;24.46;46.23
15678;BME280;7939;50.814;6.368;2023-06-10T08:13:01;99795.47;;;24.48;46.31
15678;BME280;7939;50.814;6.368;2023-06-10T08:15:28;99803.06;;;24.53;46.30
15678;BME280;7939;50.814;6.368;2023-06-10T08:17:55;99806.25;;;24.58;46.49
15678;BME280;7939;50.814;6.368;2023-06-10T08:20:22;99801.69;;;24.62;46.25
15678;BME280;7939;50.814;6.368;2023-06-10T08:22:48;99802.41;;;24.64;45.98
15678;BME280;7939;50.814;6.368;2023-06-10T08:25:15;99803.84;;;24.69;45.79
15678;BME280;7939;50.814;6.368;2023-06-10T08:27:42;99806.19;;;24.74;45.52
15678;BME280;7939;50.814;6.368;2023-06-10T08:30:11;99805.09;;;24.78;45.48
15678;BME280;7939;50.814;6.368;2023-06-10T08:32:38;99801.28;;;24.84;45.04
15678;BME280;7939;50.814;6.368;2023-06-10T08:35:05;99802.97;;;24.85;44.85
15678;BME280;7939;50.814;6.368;2023-06-10T08:37:32;99805.38;;;24.88;45.00
15678;BME280;7939;50.814;6.368;2023-06-10T08:39:59;99810.09;;;24.97;44.84
15678;BME280;7939;50.814;6.368;2023-06-10T08:42:28;99805.09;;;25.08;44.13
15678;BME280;7939;50.814;6.368;2023-06-10T08:45:00;99811.66;;;25.15;44.35
15678;BME280;7939;50.814;6.368;2023-06-10T08:47:30;99805.94;;;25.23;44.25
15678;BME280;7939;50.814;6.368;2023-06-10T08:50:02;99810.06;;;25.27;44.28
15678;BME280;7939;50.814;6.368;2023-06-10T08:52:35;99803.59;;;25.33;44.22
15678;BME280;7939;50.814;6.368;2023-06-10T08:55:05;99801.56;;;25.38;44.48
15678;BME280;7939;50.814;6.368;2023-06-10T08:57:36;99807.34;;;25.43;44.30
15678;BME280;7939;50.814;6.368;2023-06-10T09:00:05;99809.88;;;25.44;44.54
15678;BME280;7939;50.814;6.368;2023-06-10T09:02:33;99811.28;;;25.50;44.39
15678;BME280;7939;50.814;6.368;2023-06-10T09:05:02;99804.09;;;25.53;44.39
15678;BME280;7939;50.814;6.368;2023-06-10T09:07:30;99808.19;;;25.58;44.33
15678;BME280;7939;50.814;6.368;2023-06-10T09:10:00;99810.34;;;25.65;44.25
15678;BME280;7939;50.814;6.368;2023-06-10T09:12:30;99805.56;;;25.72;44.20
15678;BME280;7939;50.814;6.368;2023-06-10T09:14:56;99805.28;;;25.76;44.22
15678;BME280;7939;50.814;6.368;2023-06-10T09:17:23;99799.78;;;25.81;44.24
15678;BME280;7939;50.814;6.368;2023-06-10T09:19:52;99809.13;;;25.85;44.05
15678;BME280;7939;50.814;6.368;2023-06-10T09:22:21;99798.66;;;25.85;44.09
15678;BME280;7939;50.814;6.368;2023-06-10T09:24:48;99799.13;;;25.92;44.22
15678;BME280;7939;50.814;6.368;2023-06-10T09:27:14;99798.84;;;25.96;44.10
15678;BME280;7939;50.814;6.368;2023-06-10T09:29:51;99795.81;;;26.02;43.73
15678;BME280;7939;50.814;6.368;2023-06-10T09:32:19;99795.50;;;26.07;43.84
15678;BME280;7939;50.814;6.368;2023-06-10T09:34:46;99795.94;;;26.14;43.79
15678;BME280;7939;50.814;6.368;2023-06-10T09:37:20;99789.47;;;26.19;43.63
15678;BME280;7939;50.814;6.368;2023-06-10T09:40:01;99796.22;;;26.23;43.19
15678;BME280;7939;50.814;6.368;2023-06-10T09:42:32;99797.06;;;26.24;43.52
15678;BME280;7939;50.814;6.368;2023-06-10T09:44:59;99798.34;;;26.31;43.37
15678;BME280;7939;50.814;6.368;2023-06-10T09:47:25;99794.03;;;26.30;43.90
15678;BME280;7939;50.814;6.368;2023-06-10T09:49:52;99799.00;;;26.34;43.62
15678;BME280;7939;50.814;6.368;2023-06-10T09:52:22;99802.91;;;26.42;42.94
15678;BME280;7939;50.814;6.368;2023-06-10T09:54:50;99797.78;;;26.40;43.53
15678;BME280;7939;50.814;6.368;2023-06-10T09:57:17;99795.91;;;26.42;43.14
15678;BME280;7939;50.814;6.368;2023-06-10T09:59:45;99798.41;;;26.44;42.74
15678;BME280;7939;50.814;6.368;2023-06-10T10:02:13;99792.66;;;26.51;43.30
15678;BME280;7939;50.814;6.368;2023-06-10T10:04:40;99800.13;;;26.57;43.03
15678;BME280;7939;50.814;6.368;2023-06-10T10:07:07;99804.22;;;26.61;42.79
15678;BME280;7939;50.814;6.368;2023-06-10T10:09:35;99792.91;;;26.61;42.85
15678;BME280;7939;50.814;6.368;2023-06-10T10:12:02;99797.63;;;26.69;42.40
15678;BME280;7939;50.814;6.368;2023-06-10T10:14:32;99798.59;;;26.68;42.70
15678;BME280;7939;50.814;6.368;2023-06-10T10:17:01;99797.22;;;26.75;42.42
15678;BME280;7939;50.814;6.368;2023-06-10T10:19:31;99795.44;;;26.75;42.42
15678;BME280;7939;50.814;6.368;2023-06-10T10:22:03;99794.09;;;26.82;42.37
15678;BME280;7939;50.814;6.368;2023-06-10T10:24:35;99789.38;;;26.87;42.31
15678;BME280;7939;50.814;6.368;2023-06-10T10:27:07;99788.44;;;26.88;41.97
15678;BME280;7939;50.814;6.368;2023-06-10T10:29:39;99789.19;;;26.91;41.63
15678;BME280;7939;50.814;6.368;2023-06-10T10:32:07;99791.41;;;26.97;41.96
15678;BME280;7939;50.814;6.368;2023-06-10T10:34:36;99791.41;;;26.97;42.00
15678;BME280;7939;50.814;6.368;2023-06-10T10:37:05;99784.97;;;27.01;42.00
15678;BME280;7939;50.814;6.368;2023-06-10T10:39:34;99789.00;;;27.06;41.20
15678;BME280;7939;50.814;6.368;2023-06-10T10:42:02;99787.31;;;27.05;41.44
15678;BME280;7939;50.814;6.368;2023-06-10T10:44:30;99781.31;;;27.03;41.67
15678;BME280;7939;50.814;6.368;2023-06-10T10:47:02;99779.88;;;27.12;41.23
15678;BME280;7939;50.814;6.368;2023-06-10T10:49:30;99780.28;;;27.19;41.27
15678;BME280;7939;50.814;6.368;2023-06-10T10:51:57;99777.13;;;27.13;41.68
15678;BME280;7939;50.814;6.368;2023-06-10T10:54:31;99782.59;;;27.23;40.99
15678;BME280;7939;50.814;6.368;2023-06-10T10:57:16;99775.47;;;27.25;41.66
15678;BME280;7939;50.814;6.368;2023-06-10T10:59:54;99774.91;;;27.33;41.18
15678;BME280;7939;50.814;6.368;2023-06-10T11:02:40;99758.97;;;27.36;41.03
15678;BME280;7939;50.814;6.368;2023-06-10T11:05:09;99768.22;;;27.41;40.83
15678;BME280;7939;50.814;6.368;2023-06-10T11:07:37;99767.03;;;27.46;40.67
15678;BME280;7939;50.814;6.368;2023-06-10T11:10:07;99767.66;;;27.49;40.68
15678;BME280;7939;50.814;6.368;2023-06-10T11:12:49;99768.38;;;27.51;40.64
15678;BME280;7939;50.814;6.368;2023-06-10T11:15:19;99767.44;;;27.52;40.63
15678;BME280;7939;50.814;6.368;2023-06-10T11:18:11;99762.81;;;27.56;40.59
15678;BME280;7939;50.814;6.368;2023-06-10T11:20:43;99762.81;;;27.56;41.04
15678;BME280;7939;50.814;6.368;2023-06-10T11:23:10;99767.53;;;27.63;40.62
15678;BME280;7939;50.814;6.368;2023-06-10T11:25:38;99763.84;;;27.66;40.93
15678;BME280;7939;50.814;6.368;2023-06-10T11:28:18;99763.53;;;27.71;40.61
15678;BME280;7939;50.814;6.368;2023-06-10T11:30:44;99762.97;;;27.78;40.27
15678;BME280;7939;50.814;6.368;2023-06-10T11:33:14;99762.16;;;27.78;40.56
15678;BME280;7939;50.814;6.368;2023-06-10T11:35:41;99759.44;;;27.79;40.16
15678;BME280;7939;50.814;6.368;2023-06-10T11:38:08;99753.00;;;27.83;40.30
15678;BME280;7939;50.814;6.368;2023-06-10T11:40:36;99748.38;;;27.87;40.03
15678;BME280;7939;50.814;6.368;2023-06-10T11:43:04;99747.53;;;27.86;39.41
15678;BME280;7939;50.814;6.368;2023-06-10T11:45:32;99749.22;;;27.87;39.81
15678;BME280;7939;50.814;6.368;2023-06-10T11:47:59;99744.59;;;27.91;39.65
15678;BME280;7939;50.814;6.368;2023-06-10T11:50:30;99740.75;;;27.95;39.76
15678;BME280;7939;50.814;6.368;2023-06-10T11:52:57;99743.19;;;27.98;39.44
15678;BME280;7939;50.814;6.368;2023-06-10T11:55:24;99741.41;;;27.99;39.17
15678;BME280;7939;50.814;6.368;2023-06-10T11:57:51;99739.38;;;28.02;38.79
15678;BME280;7939;50.814;6.368;2023-06-10T12:00:23;99737.47;;;28.04;38.57
15678;BME280;7939;50.814;6.368;2023-06-10T12:02:56;99740.50;;;28.11;38.35
15678;BME280;7939;50.814;6.368;2023-06-10T12:05:23;99742.69;;;28.17;38.09
15678;BME280;7939;50.814;6.368;2023-06-10T12:08:08;99730.88;;;28.22;38.45
15678;BME280;7939;50.814;6.368;2023-06-10T12:10:39;99732.56;;;28.23;38.23
15678;BME280;7939;50.814;6.368;2023-06-10T12:13:06;99723.31;;;28.18;38.68
15678;BME280;7939;50.814;6.368;2023-06-10T12:15:33;99726.91;;;28.17;38.37
15678;BME280;7939;50.814;6.368;2023-06-10T12:18:01;99716.28;;;28.18;37.97
15678;BME280;7939;50.814;6.368;2023-06-10T12:20:28;99717.50;;;28.26;37.95
15678;BME280;7939;50.814;6.368;2023-06-10T12:22:55;99717.56;;;28.37;37.60
15678;BME280;7939;50.814;6.368;2023-06-10T12:25:25;99725.00;;;28.43;37.80
15678;BME280;7939;50.814;6.368;2023-06-10T12:27:52;99721.91;;;28.49;38.18
15678;BME280;7939;50.814;6.368;2023-06-10T12:30:20;99721.06;;;28.60;38.43
15678;BME280;7939;50.814;6.368;2023-06-10T12:32:47;99721.91;;;28.49;37.74
15678;BME280;7939;50.814;6.368;2023-06-10T12:35:17;99718.44;;;28.48;37.92
15678;BME280;7939;50.814;6.368;2023-06-10T12:37:55;99724.91;;;28.56;37.14
15678;BME280;7939;50.814;6.368;2023-06-10T12:40:26;99720.50;;;28.56;37.22
15678;BME280;7939;50.814;6.368;2023-06-10T12:42:53;99722.41;;;28.54;37.18
15678;BME280;7939;50.814;6.368;2023-06-10T12:45:26;99716.78;;;28.47;37.67
15678;BME280;7939;50.814;6.368;2023-06-10T12:48:04;99718.06;;;28.42;37.67
15678;BME280;7939;50.814;6.368;2023-06-10T12:50:32;99710.06;;;28.43;37.42
15678;BME280;7939;50.814;6.368;2023-06-10T12:52:59;99710.19;;;28.42;37.53
15678;BME280;7939;50.814;6.368;2023-06-10T12:55:25;99704.09;;;28.41;37.49
15678;BME280;7939;50.814;6.368;2023-06-10T12:57:53;99712.44;;;28.46;37.11
15678;BME280;7939;50.814;6.368;2023-06-10T13:00:20;99710.41;;;28.39;36.97
15678;BME280;7939;50.814;6.368;2023-06-10T13:02:48;99713.03;;;28.39;37.13
15678;BME280;7939;50.814;6.368;2023-06-10T13:05:16;99706.22;;;28.36;37.42
15678;BME280;7939;50.814;6.368;2023-06-10T13:07:44;99699.03;;;28.38;36.64
15678;BME280;7939;50.814;6.368;2023-06-10T13:10:11;99705.97;;;28.39;36.82
15678;BME280;7939;50.814;6.368;2023-06-10T13:12:38;99706.59;;;28.43;36.39
15678;BME280;7939;50.814;6.368;2023-06-10T13:15:06;99703.97;;;28.43;36.22